sensor_id;sensor_type;location;lat;lon;timestamp;P1;durP1;ratioP1;P2;durP2;ratioP2
54831;SDS011;40730;53.068;6.572;2022-11-14T00:01:07;46.80;;;22.88;;
54831;SDS011;40730;53.068;6.572;2022-11-14T00:03:34;46.58;;;23.15;;
54831;SDS011;40730;53.068;6.572;2022-11-14T00:05:59;42.10;;;21.48;;
54831;SDS011;40730;53.068;6.572;2022-11-14T00:08:30;43.05;;;21.08;;
54831;SDS011;40730;53.068;6.572;2022-11-14T00:10:55;42.05;;;21.08;;
54831;SDS011;40730;53.068;6.572;2022-11-14T00:13:21;48.75;;;23.10;;
54831;SDS011;40730;53.068;6.572;2022-11-14T00:15:47;48.40;;;22.77;;
54831;SDS011;40730;53.068;6.572;2022-11-14T00:18:14;44.35;;;22.40;;
54831;SDS011;40730;53.068;6.572;2022-11-14T00:20:40;40.38;;;21.45;;
54831;SDS011;40730;53.068;6.572;2022-11-14T00:23:06;46.55;;;23.13;;
54831;SDS011;40730;53.068;6.572;2022-11-14T00:25:31;43.50;;;22.10;;
54831;SDS011;40730;53.068;6.572;2022-11-14T00:27:57;43.22;;;22.75;;
54831;SDS011;40730;53.068;6.572;2022-11-14T00:30:23;44.10;;;23.52;;
54831;SDS011;40730;53.068;6.572;2022-11-14T00:32:49;43.20;;;22.90;;
54831;SDS011;40730;53.068;6.572;2022-11-14T00:35:15;44.95;;;24.23;;
54831;SDS011;40730;53.068;6.572;2022-11-14T00:37:41;44.40;;;23.80;;
54831;SDS011;40730;53.068;6.572;2022-11-14T00:40:06;45.75;;;23.77;;
54831;SDS011;40730;53.068;6.572;2022-11-14T00:42:32;44.70;;;23.48;;
54831;SDS011;40730;53.068;6.572;2022-11-14T00:44:58;43.53;;;24.02;;
54831;SDS011;40730;53.068;6.572;2022-11-14T00:47:24;46.75;;;23.92;;
54831;SDS011;40730;53.068;6.572;2022-11-14T00:49:49;44.10;;;23.70;;
54831;SDS011;40730;53.068;6.572;2022-11-14T00:52:15;43.30;;;23.67;;
54831;SDS011;40730;53.068;6.572;2022-11-14T00:54:41;48.92;;;25.13;;
54831;SDS011;40730;53.068;6.572;2022-11-14T00:57:06;47.70;;;25.27;;
54831;SDS011;40730;53.068;6.572;2022-11-14T00:59:32;43.90;;;25.65;;
54831;SDS011;40730;53.068;6.572;2022-11-14T01:01:57;52.63;;;27.30;;
54831;SDS011;40730;53.068;6.572;2022-11-14T01:04:23;48.88;;;25.85;;
54831;SDS011;40730;53.068;6.572;2022-11-14T01:06:48;46.20;;;24.98;;
54831;SDS011;40730;53.068;6.572;2022-11-14T01:09:14;50.20;;;29.55;;
54831;SDS011;40730;53.068;6.572;2022-11-14T01:11:40;48.38;;;26.00;;
54831;SDS011;40730;53.068;6.572;2022-11-14T01:14:06;52.15;;;27.13;;
54831;SDS011;40730;53.068;6.572;2022-11-14T01:16:32;54.38;;;29.92;;
54831;SDS011;40730;53.068;6.572;2022-11-14T01:18:59;49.38;;;26.95;;
54831;SDS011;40730;53.068;6.572;2022-11-14T01:21:26;56.00;;;30.00;;
54831;SDS011;40730;53.068;6.572;2022-11-14T01:23:51;48.55;;;29.20;;
54831;SDS011;40730;53.068;6.572;2022-11-14T01:26:17;60.08;;;32.83;;
54831;SDS011;40730;53.068;6.572;2022-11-14T01:28:42;60.65;;;32.92;;
54831;SDS011;40730;53.068;6.572;2022-11-14T01:31:09;61.58;;;32.05;;
54831;SDS011;40730;53.068;6.572;2022-11-14T01:33:39;63.40;;;34.65;;
54831;SDS011;40730;53.068;6.572;2022-11-14T01:36:05;63.58;;;35.10;;
54831;SDS011;40730;53.068;6.572;2022-11-14T01:38:31;62.00;;;32.67;;
54831;SDS011;40730;53.068;6.572;2022-11-14T01:40:57;67.63;;;36.00;;
54831;SDS011;40730;53.068;6.572;2022-11-14T01:43:24;66.05;;;34.80;;
54831;SDS011;40730;53.068;6.572;2022-11-14T01:51:11;65.93;;;35.53;;
54831;SDS011;40730;53.068;6.572;2022-11-14T01:53:41;65.28;;;34.85;;
54831;SDS011;40730;53.068;6.572;2022-11-14T01:56:08;69.75;;;35.20;;
54831;SDS011;40730;53.068;6.572;2022-11-14T01:58:37;70.20;;;37.10;;
54831;SDS011;40730;53.068;6.572;2022-11-14T02:01:06;66.97;;;34.03;;
54831;SDS011;40730;53.068;6.572;2022-11-14T02:03:32;69.75;;;37.10;;
54831;SDS011;40730;53.068;6.572;2022-11-14T02:06:02;73.82;;;38.45;;
54831;SDS011;40730;53.068;6.572;2022-11-14T02:08:28;71.53;;;37.65;;
54831;SDS011;40730;53.068;6.572;2022-11-14T02:10:55;65.47;;;35.42;;
54831;SDS011;40730;53.068;6.572;2022-11-14T02:13:20;73.28;;;37.25;;
54831;SDS011;40730;53.068;6.572;2022-11-14T02:15:46;75.07;;;39.17;;
54831;SDS011;40730;53.068;6.572;2022-11-14T02:18:11;72.85;;;36.13;;
54831;SDS011;40730;53.068;6.572;2022-11-14T02:20:37;75.38;;;37.97;;
54831;SDS011;40730;53.068;6.572;2022-11-14T02:23:07;77.47;;;38.95;;
54831;SDS011;40730;53.068;6.572;2022-11-14T02:25:37;75.28;;;38.95;;
54831;SDS011;40730;53.068;6.572;2022-11-14T02:28:04;82.63;;;41.17;;
54831;SDS011;40730;53.068;6.572;2022-11-14T02:30:33;84.55;;;41.97;;
54831;SDS011;40730;53.068;6.572;2022-11-14T02:32:58;81.45;;;39.58;;
54831;SDS011;40730;53.068;6.572;2022-11-14T02:35:24;83.35;;;42.88;;
54831;SDS011;40730;53.068;6.572;2022-11-14T02:37:50;82.32;;;41.55;;
54831;SDS011;40730;53.068;6.572;2022-11-14T02:40:15;83.97;;;42.63;;
54831;SDS011;40730;53.068;6.572;2022-11-14T02:42:41;85.40;;;42.08;;
54831;SDS011;40730;53.068;6.572;2022-11-14T02:45:07;81.10;;;39.33;;
54831;SDS011;40730;53.068;6.572;2022-11-14T02:47:33;83.95;;;41.97;;
54831;SDS011;40730;53.068;6.572;2022-11-14T02:49:59;82.75;;;42.60;;
54831;SDS011;40730;53.068;6.572;2022-11-14T02:52:24;83.75;;;40.83;;
54831;SDS011;40730;53.068;6.572;2022-11-14T02:54:50;83.13;;;42.08;;
54831;SDS011;40730;53.068;6.572;2022-11-14T02:57:15;84.80;;;40.78;;
54831;SDS011;40730;53.068;6.572;2022-11-14T02:59:41;84.47;;;40.75;;
54831;SDS011;40730;53.068;6.572;2022-11-14T03:02:06;79.90;;;41.05;;
54831;SDS011;40730;53.068;6.572;2022-11-14T03:04:32;83.72;;;41.88;;
54831;SDS011;40730;53.068;6.572;2022-11-14T03:06:57;80.85;;;41.10;;
54831;SDS011;40730;53.068;6.572;2022-11-14T03:09:23;82.93;;;40.83;;
54831;SDS011;40730;53.068;6.572;2022-11-14T03:11:48;83.05;;;43.47;;
54831;SDS011;40730;53.068;6.572;2022-11-14T03:14:14;84.32;;;42.78;;
54831;SDS011;40730;53.068;6.572;2022-11-14T03:16:40;76.57;;;40.65;;
54831;SDS011;40730;53.068;6.572;2022-11-14T03:19:05;83.18;;;42.05;;
54831;SDS011;40730;53.068;6.572;2022-11-14T03:21:31;77.20;;;40.67;;
54831;SDS011;40730;53.068;6.572;2022-11-14T03:23:56;79.43;;;40.38;;
54831;SDS011;40730;53.068;6.572;2022-11-14T03:26:22;77.65;;;40.00;;
54831;SDS011;40730;53.068;6.572;2022-11-14T03:28:47;73.78;;;37.75;;
54831;SDS011;40730;53.068;6.572;2022-11-14T03:31:13;75.80;;;38.13;;
54831;SDS011;40730;53.068;6.572;2022-11-14T03:33:39;78.93;;;38.30;;
54831;SDS011;40730;53.068;6.572;2022-11-14T03:36:05;74.20;;;38.65;;
54831;SDS011;40730;53.068;6.572;2022-11-14T03:38:31;74.38;;;38.72;;
54831;SDS011;40730;53.068;6.572;2022-11-14T03:40:57;78.82;;;38.35;;
54831;SDS011;40730;53.068;6.572;2022-11-14T03:43:25;79.35;;;38.67;;
54831;SDS011;40730;53.068;6.572;2022-11-14T03:45:53;77.63;;;39.97;;
54831;SDS011;40730;53.068;6.572;2022-11-14T03:48:22;77.35;;;39.67;;
54831;SDS011;40730;53.068;6.572;2022-11-14T03:50:48;78.20;;;40.22;;
54831;SDS011;40730;53.068;6.572;2022-11-14T03:53:13;77.40;;;37.63;;
54831;SDS011;40730;53.068;6.572;2022-11-14T03:55:39;76.70;;;41.35;;
54831;SDS011;40730;53.068;6.572;2022-11-14T03:58:07;77.22;;;40.53;;
54831;SDS011;40730;53.068;6.572;2022-11-14T04:00:33;74.40;;;40.15;;
54831;SDS011;40730;53.068;6.572;2022-11-14T04:02:59;78.97;;;41.25;;
54831;SDS011;40730;53.068;6.572;2022-11-14T04:05:24;76.32;;;39.17;;
54831;SDS011;40730;53.068;6.572;2022-11-14T04:07:50;76.38;;;39.13;;
54831;SDS011;40730;53.068;6.572;2022-11-14T04:10:16;73.95;;;39.50;;
54831;SDS011;40730;53.068;6.572;2022-11-14T04:12:48;72.85;;;39.35;;
54831;SDS011;40730;53.068;6.572;2022-11-14T04:15:18;78.03;;;38.25;;
54831;SDS011;40730;53.068;6.572;2022-11-14T04:17:44;74.90;;;40.35;;
54831;SDS011;40730;53.068;6.572;2022-11-14T04:20:10;73.75;;;39.95;;
54831;SDS011;40730;53.068;6.572;2022-11-14T04:22:36;73.63;;;39.03;;
54831;SDS011;40730;53.068;6.572;2022-11-14T04:25:02;69.78;;;38.20;;
54831;SDS011;40730;53.068;6.572;2022-11-14T04:27:29;72.25;;;39.53;;
54831;SDS011;40730;53.068;6.572;2022-11-14T04:29:54;75.85;;;39.20;;
54831;SDS011;40730;53.068;6.572;2022-11-14T04:32:20;71.20;;;39.85;;
54831;SDS011;40730;53.068;6.572;2022-11-14T04:34:45;77.30;;;41.33;;
54831;SDS011;40730;53.068;6.572;2022-11-14T04:37:11;73.35;;;40.67;;
54831;SDS011;40730;53.068;6.572;2022-11-14T04:39:36;72.68;;;40.17;;
54831;SDS011;40730;53.068;6.572;2022-11-14T04:42:02;76.85;;;41.08;;
54831;SDS011;40730;53.068;6.572;2022-11-14T04:44:28;71.47;;;38.53;;
54831;SDS011;40730;53.068;6.572;2022-11-14T04:46:53;65.88;;;37.83;;
54831;SDS011;40730;53.068;6.572;2022-11-14T04:49:19;70.72;;;37.28;;
54831;SDS011;40730;53.068;6.572;2022-11-14T04:51:45;70.28;;;37.88;;
54831;SDS011;40730;53.068;6.572;2022-11-14T04:54:10;69.53;;;37.50;;
54831;SDS011;40730;53.068;6.572;2022-11-14T04:56:36;70.18;;;37.95;;
54831;SDS011;40730;53.068;6.572;2022-11-14T04:59:01;68.00;;;36.97;;
54831;SDS011;40730;53.068;6.572;2022-11-14T05:01:27;74.72;;;39.72;;
54831;SDS011;40730;53.068;6.572;2022-11-14T05:03:52;72.75;;;39.63;;
54831;SDS011;40730;53.068;6.572;2022-11-14T05:06:18;66.03;;;36.30;;
54831;SDS011;40730;53.068;6.572;2022-11-14T05:08:44;69.43;;;37.95;;
54831;SDS011;40730;53.068;6.572;2022-11-14T05:11:16;70.28;;;37.00;;
54831;SDS011;40730;53.068;6.572;2022-11-14T05:13:43;70.70;;;39.08;;
54831;SDS011;40730;53.068;6.572;2022-11-14T05:16:09;68.40;;;37.25;;
54831;SDS011;40730;53.068;6.572;2022-11-14T05:18:35;70.60;;;38.58;;
54831;SDS011;40730;53.068;6.572;2022-11-14T05:21:01;74.22;;;38.28;;
54831;SDS011;40730;53.068;6.572;2022-11-14T05:23:27;67.78;;;36.20;;
54831;SDS011;40730;53.068;6.572;2022-11-14T05:26:00;66.47;;;37.15;;
54831;SDS011;40730;53.068;6.572;2022-11-14T05:28:26;67.82;;;36.25;;
54831;SDS011;40730;53.068;6.572;2022-11-14T05:30:52;77.00;;;39.15;;
54831;SDS011;40730;53.068;6.572;2022-11-14T05:33:17;72.07;;;39.50;;
54831;SDS011;40730;53.068;6.572;2022-11-14T05:35:43;72.30;;;37.42;;
54831;SDS011;40730;53.068;6.572;2022-11-14T05:38:08;73.35;;;38.75;;
54831;SDS011;40730;53.068;6.572;2022-11-14T05:40:34;72.78;;;39.20;;
54831;SDS011;40730;53.068;6.572;2022-11-14T05:43:01;73.82;;;39.53;;
54831;SDS011;40730;53.068;6.572;2022-11-14T05:45:26;75.60;;;39.85;;
54831;SDS011;40730;53.068;6.572;2022-11-14T05:47:52;74.28;;;40.20;;
54831;SDS011;40730;53.068;6.572;2022-11-14T05:50:21;70.95;;;38.47;;
54831;SDS011;40730;53.068;6.572;2022-11-14T05:52:46;76.15;;;41.38;;
54831;SDS011;40730;53.068;6.572;2022-11-14T05:55:12;76.00;;;40.58;;
54831;SDS011;40730;53.068;6.572;2022-11-14T05:57:37;78.53;;;40.85;;
54831;SDS011;40730;53.068;6.572;2022-11-14T06:00:03;79.20;;;38.53;;
54831;SDS011;40730;53.068;6.572;2022-11-14T06:02:29;81.43;;;41.67;;
54831;SDS011;40730;53.068;6.572;2022-11-14T06:04:55;78.05;;;41.33;;
54831;SDS011;40730;53.068;6.572;2022-11-14T06:07:20;80.38;;;41.20;;
54831;SDS011;40730;53.068;6.572;2022-11-14T06:09:46;80.22;;;40.47;;
54831;SDS011;40730;53.068;6.572;2022-11-14T06:12:11;78.30;;;40.65;;
54831;SDS011;40730;53.068;6.572;2022-11-14T06:14:37;76.68;;;39.97;;
54831;SDS011;40730;53.068;6.572;2022-11-14T06:17:03;75.90;;;38.63;;
54831;SDS011;40730;53.068;6.572;2022-11-14T06:19:28;77.05;;;40.03;;
54831;SDS011;40730;53.068;6.572;2022-11-14T06:21:54;77.90;;;39.25;;
54831;SDS011;40730;53.068;6.572;2022-11-14T06:24:19;82.13;;;41.28;;
54831;SDS011;40730;53.068;6.572;2022-11-14T06:26:45;80.00;;;41.83;;
54831;SDS011;40730;53.068;6.572;2022-11-14T06:29:10;91.82;;;43.20;;
54831;SDS011;40730;53.068;6.572;2022-11-14T06:31:36;86.85;;;42.65;;
54831;SDS011;40730;53.068;6.572;2022-11-14T06:34:03;83.20;;;40.97;;
54831;SDS011;40730;53.068;6.572;2022-11-14T06:36:30;87.07;;;41.85;;
54831;SDS011;40730;53.068;6.572;2022-11-14T06:38:55;86.07;;;42.65;;
54831;SDS011;40730;53.068;6.572;2022-11-14T06:41:21;86.85;;;42.67;;
54831;SDS011;40730;53.068;6.572;2022-11-14T06:43:50;92.82;;;44.15;;
54831;SDS011;40730;53.068;6.572;2022-11-14T06:46:18;87.63;;;44.47;;
54831;SDS011;40730;53.068;6.572;2022-11-14T06:48:45;91.22;;;44.10;;
54831;SDS011;40730;53.068;6.572;2022-11-14T06:51:12;90.78;;;43.60;;
54831;SDS011;40730;53.068;6.572;2022-11-14T06:53:38;86.65;;;42.53;;
54831;SDS011;40730;53.068;6.572;2022-11-14T06:56:11;93.88;;;42.45;;
54831;SDS011;40730;53.068;6.572;2022-11-14T06:58:40;90.38;;;43.47;;
54831;SDS011;40730;53.068;6.572;2022-11-14T07:03:37;95.80;;;44.17;;
54831;SDS011;40730;53.068;6.572;2022-11-14T07:06:04;93.43;;;44.40;;
54831;SDS011;40730;53.068;6.572;2022-11-14T07:08:30;98.00;;;43.33;;
54831;SDS011;40730;53.068;6.572;2022-11-14T07:11:00;97.82;;;45.67;;
54831;SDS011;40730;53.068;6.572;2022-11-14T07:13:27;100.68;;;45.70;;
54831;SDS011;40730;53.068;6.572;2022-11-14T07:15:54;100.35;;;44.55;;
54831;SDS011;40730;53.068;6.572;2022-11-14T07:18:19;93.95;;;45.22;;
54831;SDS011;40730;53.068;6.572;2022-11-14T07:20:45;101.93;;;45.10;;
54831;SDS011;40730;53.068;6.572;2022-11-14T07:23:11;105.72;;;46.63;;
54831;SDS011;40730;53.068;6.572;2022-11-14T07:25:37;101.93;;;44.10;;
54831;SDS011;40730;53.068;6.572;2022-11-14T07:28:03;103.35;;;46.60;;
54831;SDS011;40730;53.068;6.572;2022-11-14T07:30:28;105.40;;;45.70;;
54831;SDS011;40730;53.068;6.572;2022-11-14T07:32:57;104.15;;;45.22;;
54831;SDS011;40730;53.068;6.572;2022-11-14T07:35:23;93.55;;;43.60;;
54831;SDS011;40730;53.068;6.572;2022-11-14T07:37:50;102.63;;;42.50;;
54831;SDS011;40730;53.068;6.572;2022-11-14T07:40:16;96.35;;;43.50;;
54831;SDS011;40730;53.068;6.572;2022-11-14T07:42:43;91.53;;;42.10;;
54831;SDS011;40730;53.068;6.572;2022-11-14T07:45:09;97.88;;;42.45;;
54831;SDS011;40730;53.068;6.572;2022-11-14T07:47:34;90.57;;;42.33;;
54831;SDS011;40730;53.068;6.572;2022-11-14T07:50:00;91.53;;;42.33;;
54831;SDS011;40730;53.068;6.572;2022-11-14T07:52:26;88.45;;;40.42;;
54831;SDS011;40730;53.068;6.572;2022-11-14T07:54:52;89.95;;;40.03;;
54831;SDS011;40730;53.068;6.572;2022-11-14T07:57:17;83.50;;;36.60;;
54831;SDS011;40730;53.068;6.572;2022-11-14T07:59:43;92.18;;;40.05;;
54831;SDS011;40730;53.068;6.572;2022-11-14T08:02:12;84.43;;;39.38;;
54831;SDS011;40730;53.068;6.572;2022-11-14T08:04:39;89.07;;;41.35;;
54831;SDS011;40730;53.068;6.572;2022-11-14T08:07:05;87.18;;;40.00;;
54831;SDS011;40730;53.068;6.572;2022-11-14T08:09:31;79.07;;;38.60;;
54831;SDS011;40730;53.068;6.572;2022-11-14T08:11:56;75.22;;;36.42;;
54831;SDS011;40730;53.068;6.572;2022-11-14T08:14:22;73.53;;;37.50;;
54831;SDS011;40730;53.068;6.572;2022-11-14T08:16:48;75.38;;;37.42;;
54831;SDS011;40730;53.068;6.572;2022-11-14T08:19:14;80.65;;;37.25;;
54831;SDS011;40730;53.068;6.572;2022-11-14T08:21:40;72.32;;;36.63;;
54831;SDS011;40730;53.068;6.572;2022-11-14T08:24:06;79.80;;;38.63;;
54831;SDS011;40730;53.068;6.572;2022-11-14T08:26:32;75.05;;;38.05;;
54831;SDS011;40730;53.068;6.572;2022-11-14T08:28:58;78.10;;;39.05;;
54831;SDS011;40730;53.068;6.572;2022-11-14T08:31:23;74.75;;;38.25;;
54831;SDS011;40730;53.068;6.572;2022-11-14T08:33:50;78.15;;;39.17;;
54831;SDS011;40730;53.068;6.572;2022-11-14T08:36:16;74.53;;;37.60;;
54831;SDS011;40730;53.068;6.572;2022-11-14T08:38:42;77.38;;;39.83;;
54831;SDS011;40730;53.068;6.572;2022-11-14T08:41:07;73.32;;;39.00;;
54831;SDS011;40730;53.068;6.572;2022-11-14T08:43:33;76.00;;;37.83;;
54831;SDS011;40730;53.068;6.572;2022-11-14T08:45:59;75.15;;;37.72;;
54831;SDS011;40730;53.068;6.572;2022-11-14T08:48:26;70.30;;;36.92;;
54831;SDS011;40730;53.068;6.572;2022-11-14T08:50:51;69.72;;;34.03;;
54831;SDS011;40730;53.068;6.572;2022-11-14T08:53:17;67.10;;;35.95;;
54831;SDS011;40730;53.068;6.572;2022-11-14T08:55:43;71.28;;;38.22;;
54831;SDS011;40730;53.068;6.572;2022-11-14T08:58:10;67.00;;;35.70;;
54831;SDS011;40730;53.068;6.572;2022-11-14T09:00:37;67.78;;;34.28;;
54831;SDS011;40730;53.068;6.572;2022-11-14T09:03:09;66.05;;;32.65;;
54831;SDS011;40730;53.068;6.572;2022-11-14T09:05:38;65.78;;;33.75;;
54831;SDS011;40730;53.068;6.572;2022-11-14T09:08:04;68.07;;;34.50;;
54831;SDS011;40730;53.068;6.572;2022-11-14T09:10:30;62.25;;;33.67;;
54831;SDS011;40730;53.068;6.572;2022-11-14T09:12:56;60.60;;;33.35;;
54831;SDS011;40730;53.068;6.572;2022-11-14T09:15:26;59.80;;;33.15;;
54831;SDS011;40730;53.068;6.572;2022-11-14T09:17:53;65.65;;;34.55;;
54831;SDS011;40730;53.068;6.572;2022-11-14T09:20:19;62.92;;;33.78;;
54831;SDS011;40730;53.068;6.572;2022-11-14T09:22:46;61.97;;;32.60;;
54831;SDS011;40730;53.068;6.572;2022-11-14T09:25:12;57.63;;;31.45;;
54831;SDS011;40730;53.068;6.572;2022-11-14T09:27:37;60.00;;;33.58;;
54831;SDS011;40730;53.068;6.572;2022-11-14T09:30:03;64.78;;;35.92;;
54831;SDS011;40730;53.068;6.572;2022-11-14T09:32:30;58.45;;;31.02;;
54831;SDS011;40730;53.068;6.572;2022-11-14T09:34:55;58.15;;;33.17;;
54831;SDS011;40730;53.068;6.572;2022-11-14T09:37:21;54.90;;;31.48;;
54831;SDS011;40730;53.068;6.572;2022-11-14T09:39:46;55.38;;;30.75;;
54831;SDS011;40730;53.068;6.572;2022-11-14T09:42:30;54.40;;;31.63;;
54831;SDS011;40730;53.068;6.572;2022-11-14T09:45:11;55.08;;;32.22;;
54831;SDS011;40730;53.068;6.572;2022-11-14T09:47:40;60.28;;;33.13;;
54831;SDS011;40730;53.068;6.572;2022-11-14T09:50:41;55.70;;;32.28;;
54831;SDS011;40730;53.068;6.572;2022-11-14T09:53:13;56.55;;;31.30;;
54831;SDS011;40730;53.068;6.572;2022-11-14T09:56:00;56.05;;;31.25;;
54831;SDS011;40730;53.068;6.572;2022-11-14T09:58:26;53.28;;;31.45;;
54831;SDS011;40730;53.068;6.572;2022-11-14T10:01:02;53.75;;;30.75;;
54831;SDS011;40730;53.068;6.572;2022-11-14T10:03:58;54.85;;;31.40;;
54831;SDS011;40730;53.068;6.572;2022-11-14T10:07:06;49.17;;;29.42;;
54831;SDS011;40730;53.068;6.572;2022-11-14T10:10:01;53.20;;;30.50;;
54831;SDS011;40730;53.068;6.572;2022-11-14T10:12:39;51.05;;;30.13;;
54831;SDS011;40730;53.068;6.572;2022-11-14T10:21:08;44.70;;;26.20;;
54831;SDS011;40730;53.068;6.572;2022-11-14T10:26:28;48.65;;;28.17;;
54831;SDS011;40730;53.068;6.572;2022-11-14T10:34:02;42.20;;;26.63;;
54831;SDS011;40730;53.068;6.572;2022-11-14T10:39:50;42.20;;;26.45;;
54831;SDS011;40730;53.068;6.572;2022-11-14T10:42:38;44.63;;;26.63;;
54831;SDS011;40730;53.068;6.572;2022-11-14T10:45:09;45.45;;;26.92;;
54831;SDS011;40730;53.068;6.572;2022-11-14T10:47:48;45.45;;;27.65;;
54831;SDS011;40730;53.068;6.572;2022-11-14T10:50:23;47.20;;;27.38;;
54831;SDS011;40730;53.068;6.572;2022-11-14T10:53:03;42.63;;;26.40;;
54831;SDS011;40730;53.068;6.572;2022-11-14T10:55:39;42.72;;;27.27;;
54831;SDS011;40730;53.068;6.572;2022-11-14T10:58:08;44.85;;;27.08;;
54831;SDS011;40730;53.068;6.572;2022-11-14T11:00:37;45.00;;;27.65;;
54831;SDS011;40730;53.068;6.572;2022-11-14T11:03:02;37.58;;;26.10;;
54831;SDS011;40730;53.068;6.572;2022-11-14T11:05:28;41.45;;;26.48;;
54831;SDS011;40730;53.068;6.572;2022-11-14T11:07:55;39.08;;;26.25;;
54831;SDS011;40730;53.068;6.572;2022-11-14T11:10:42;37.28;;;26.52;;
54831;SDS011;40730;53.068;6.572;2022-11-14T11:13:33;37.10;;;25.00;;
54831;SDS011;40730;53.068;6.572;2022-11-14T11:16:01;37.60;;;25.90;;
54831;SDS011;40730;53.068;6.572;2022-11-14T11:18:35;35.58;;;25.58;;
54831;SDS011;40730;53.068;6.572;2022-11-14T11:23:27;36.20;;;25.20;;
54831;SDS011;40730;53.068;6.572;2022-11-14T11:26:04;35.55;;;24.20;;
54831;SDS011;40730;53.068;6.572;2022-11-14T11:28:33;34.28;;;24.58;;
54831;SDS011;40730;53.068;6.572;2022-11-14T11:31:04;33.60;;;23.40;;
54831;SDS011;40730;53.068;6.572;2022-11-14T11:33:33;35.13;;;24.70;;
54831;SDS011;40730;53.068;6.572;2022-11-14T11:38:31;31.60;;;23.15;;
54831;SDS011;40730;53.068;6.572;2022-11-14T11:41:15;34.70;;;24.35;;
54831;SDS011;40730;53.068;6.572;2022-11-14T11:43:55;34.95;;;24.05;;
54831;SDS011;40730;53.068;6.572;2022-11-14T11:49:00;31.58;;;23.73;;
54831;SDS011;40730;53.068;6.572;2022-11-14T11:51:39;32.35;;;23.65;;
54831;SDS011;40730;53.068;6.572;2022-11-14T11:54:20;31.85;;;23.67;;
54831;SDS011;40730;53.068;6.572;2022-11-14T11:56:52;30.05;;;22.63;;
54831;SDS011;40730;53.068;6.572;2022-11-14T11:59:27;30.98;;;23.20;;
54831;SDS011;40730;53.068;6.572;2022-11-14T12:02:15;33.13;;;22.98;;
54831;SDS011;40730;53.068;6.572;2022-11-14T12:04:48;33.40;;;22.77;;
54831;SDS011;40730;53.068;6.572;2022-11-14T12:10:23;31.73;;;22.85;;
54831;SDS011;40730;53.068;6.572;2022-11-14T12:26:48;32.97;;;24.02;;
54831;SDS011;40730;53.068;6.572;2022-11-14T12:31:55;32.30;;;23.73;;
54831;SDS011;40730;53.068;6.572;2022-11-14T12:34:30;31.25;;;23.83;;
54831;SDS011;40730;53.068;6.572;2022-11-14T12:37:08;30.63;;;24.10;;
54831;SDS011;40730;53.068;6.572;2022-11-14T12:40:05;30.95;;;23.45;;
54831;SDS011;40730;53.068;6.572;2022-11-14T12:42:32;32.45;;;25.17;;
54831;SDS011;40730;53.068;6.572;2022-11-14T12:44:59;33.17;;;24.52;;
54831;SDS011;40730;53.068;6.572;2022-11-14T12:47:26;30.65;;;23.25;;
54831;SDS011;40730;53.068;6.572;2022-11-14T12:57:56;27.58;;;22.15;;
54831;SDS011;40730;53.068;6.572;2022-11-14T13:00:35;28.67;;;21.75;;
54831;SDS011;40730;53.068;6.572;2022-11-14T13:18:11;30.88;;;22.48;;
54831;SDS011;40730;53.068;6.572;2022-11-14T13:21:04;29.45;;;22.30;;
54831;SDS011;40730;53.068;6.572;2022-11-14T13:23:58;30.60;;;22.35;;
54831;SDS011;40730;53.068;6.572;2022-11-14T13:28:50;29.33;;;21.40;;
54831;SDS011;40730;53.068;6.572;2022-11-14T13:31:18;28.35;;;21.27;;
54831;SDS011;40730;53.068;6.572;2022-11-14T13:33:45;27.55;;;20.60;;
54831;SDS011;40730;53.068;6.572;2022-11-14T13:39:33;27.13;;;20.92;;
54831;SDS011;40730;53.068;6.572;2022-11-14T13:42:08;27.73;;;20.10;;
54831;SDS011;40730;53.068;6.572;2022-11-14T13:50:30;27.52;;;20.02;;
54831;SDS011;40730;53.068;6.572;2022-11-14T13:52:57;29.00;;;20.48;;
54831;SDS011;40730;53.068;6.572;2022-11-14T13:55:47;25.70;;;19.15;;
54831;SDS011;40730;53.068;6.572;2022-11-14T14:12:22;29.70;;;19.30;;
54831;SDS011;40730;53.068;6.572;2022-11-14T14:17:46;27.05;;;19.10;;
54831;SDS011;40730;53.068;6.572;2022-11-14T14:21:08;28.65;;;19.95;;
54831;SDS011;40730;53.068;6.572;2022-11-14T14:23:39;27.65;;;18.63;;
54831;SDS011;40730;53.068;6.572;2022-11-14T14:31:48;29.05;;;20.52;;
54831;SDS011;40730;53.068;6.572;2022-11-14T14:36:55;26.73;;;18.75;;
54831;SDS011;40730;53.068;6.572;2022-11-14T14:41:49;30.98;;;19.45;;
54831;SDS011;40730;53.068;6.572;2022-11-14T14:44:27;31.50;;;20.00;;
54831;SDS011;40730;53.068;6.572;2022-11-14T14:47:22;30.05;;;18.75;;
54831;SDS011;40730;53.068;6.572;2022-11-14T14:49:57;31.58;;;20.00;;
54831;SDS011;40730;53.068;6.572;2022-11-14T14:52:29;27.42;;;18.27;;
54831;SDS011;40730;53.068;6.572;2022-11-14T14:54:57;26.75;;;17.90;;
54831;SDS011;40730;53.068;6.572;2022-11-14T14:57:26;28.20;;;18.40;;
54831;SDS011;40730;53.068;6.572;2022-11-14T14:59:59;29.55;;;19.83;;
54831;SDS011;40730;53.068;6.572;2022-11-14T15:02:26;30.50;;;19.35;;
54831;SDS011;40730;53.068;6.572;2022-11-14T15:04:53;26.63;;;18.45;;
54831;SDS011;40730;53.068;6.572;2022-11-14T15:07:21;27.92;;;18.73;;
54831;SDS011;40730;53.068;6.572;2022-11-14T15:09:55;26.38;;;17.60;;
54831;SDS011;40730;53.068;6.572;2022-11-14T15:12:26;29.67;;;19.02;;
54831;SDS011;40730;53.068;6.572;2022-11-14T15:14:54;30.20;;;20.02;;
54831;SDS011;40730;53.068;6.572;2022-11-14T15:17:21;28.48;;;19.73;;
54831;SDS011;40730;53.068;6.572;2022-11-14T15:19:48;28.67;;;18.85;;
54831;SDS011;40730;53.068;6.572;2022-11-14T15:27:50;29.20;;;19.42;;
54831;SDS011;40730;53.068;6.572;2022-11-14T15:30:24;26.98;;;18.02;;
54831;SDS011;40730;53.068;6.572;2022-11-14T15:32:53;28.02;;;18.25;;
54831;SDS011;40730;53.068;6.572;2022-11-14T15:40:35;30.48;;;18.63;;
54831;SDS011;40730;53.068;6.572;2022-11-14T15:43:49;27.13;;;19.13;;
54831;SDS011;40730;53.068;6.572;2022-11-14T15:46:23;29.02;;;19.00;;
54831;SDS011;40730;53.068;6.572;2022-11-14T15:48:50;29.20;;;19.25;;
54831;SDS011;40730;53.068;6.572;2022-11-14T15:51:16;29.10;;;19.05;;
54831;SDS011;40730;53.068;6.572;2022-11-14T15:53:43;28.27;;;17.85;;
54831;SDS011;40730;53.068;6.572;2022-11-14T15:56:11;29.25;;;18.95;;
54831;SDS011;40730;53.068;6.572;2022-11-14T15:58:37;29.95;;;18.30;;
54831;SDS011;40730;53.068;6.572;2022-11-14T16:01:03;31.73;;;19.90;;
54831;SDS011;40730;53.068;6.572;2022-11-14T16:03:29;27.90;;;18.45;;
54831;SDS011;40730;53.068;6.572;2022-11-14T16:05:55;25.63;;;17.90;;
54831;SDS011;40730;53.068;6.572;2022-11-14T16:08:21;28.38;;;19.48;;
54831;SDS011;40730;53.068;6.572;2022-11-14T16:10:46;30.02;;;19.42;;
54831;SDS011;40730;53.068;6.572;2022-11-14T16:13:12;28.63;;;18.58;;
54831;SDS011;40730;53.068;6.572;2022-11-14T16:15:37;26.35;;;17.20;;
54831;SDS011;40730;53.068;6.572;2022-11-14T16:18:03;29.15;;;18.58;;
54831;SDS011;40730;53.068;6.572;2022-11-14T16:20:29;27.35;;;18.63;;
54831;SDS011;40730;53.068;6.572;2022-11-14T16:22:58;27.52;;;17.63;;
54831;SDS011;40730;53.068;6.572;2022-11-14T16:25:24;26.08;;;18.75;;
54831;SDS011;40730;53.068;6.572;2022-11-14T16:27:51;26.08;;;17.27;;
54831;SDS011;40730;53.068;6.572;2022-11-14T16:30:18;26.17;;;18.15;;
54831;SDS011;40730;53.068;6.572;2022-11-14T16:32:45;28.95;;;18.13;;
54831;SDS011;40730;53.068;6.572;2022-11-14T16:35:13;25.13;;;17.15;;